CheckWX is a tool to help pilots better visualize weather data.  It is not intended as a substitute for an official pre-flight weather briefing.

06:45:28 UTC

VVNB TAF
Noi Bai International Airport
Hanoi, Vietnam
TAF VVNB 160500Z 1606/1706 12008KT 9000 FEW025

Jun-16@
06:00 UTC

Jun-16 @ 06:00 UTC

Jun-17@
06:00 UTC

Jun-17 @ 06:00 UTC

TAF VVNB 160500Z 1606/1706 12008KT 9000 FEW025
Wind
  • 120° at 8 KTS
Cloud Levels
  • Few at 2,500' AGL